Time;durP1;ratioP1;P1;durP2;ratioP2;P2;SDS_P1;SDS_P2;PMS_P1;PMS_P2;Temp;Humidity;BMP_temperature;BMP_pressure;BME280_temperature;BME280_humidity;BME280_pressure;Samples;Min_cycle;Max_cycle;Signal;HPM_P1;HPM_P2
2024/01/01 00:03:57;;;;;;;63.80;36.00;;;;;;;;;;13043542;22;20912;-93
2024/01/01 00:08:59;;;;;;;65.20;36.40;;;;;;;;;;13043923;22;20381;-92
2024/01/01 00:14:03;;;;;;;62.90;35.00;;;;;;;;;;13052544;22;20376;-91
2024/01/01 00:19:05;;;;;;;74.75;39.58;;;;;;;;;;13064846;22;20368;-92
2024/01/01 00:24:08;;;;;;;68.63;37.35;;;;;;;;;;13044838;22;20400;-93
2024/01/01 00:29:11;;;;;;;57.00;31.67;;;;;;;;;;13044435;22;20369;-90
2024/01/01 00:34:14;;;;;;;52.88;31.25;;;;;;;;;;13045430;22;20360;-93
2024/01/01 00:39:16;;;;;;;50.00;28.50;;;;;;;;;;13047236;22;20454;-93
2024/01/01 00:44:20;;;;;;;45.42;26.45;;;;;;;;;;13043003;22;20381;-94
2024/01/01 00:49:23;;;;;;;47.00;27.67;;;;;;;;;;13051678;22;20368;-93
2024/01/01 00:54:28;;;;;;;43.97;26.60;;;;;;;;;;13040238;22;20450;-88
2024/01/01 00:59:32;;;;;;;46.53;26.77;;;;;;;;;;13040711;22;20376;-94
2024/01/01 01:04:34;;;;;;;48.33;27.08;;;;;;;;;;13070553;22;20736;-91
2024/01/01 01:09:36;;;;;;;48.50;27.40;;;;;;;;;;13069198;22;20352;-91
2024/01/01 01:14:40;;;;;;;48.63;27.80;;;;;;;;;;13069759;22;20361;-91
2024/01/01 01:19:42;;;;;;;49.67;28.55;;;;;;;;;;13047896;22;20381;-91
2024/01/01 01:24:45;;;;;;;49.05;27.65;;;;;;;;;;13052953;22;20438;-91
2024/01/01 01:29:49;;;;;;;42.33;24.35;;;;;;;;;;13082627;22;20368;-91
2024/01/01 01:34:52;;;;;;;44.33;24.30;;;;;;;;;;13047653;22;20365;-91
2024/01/01 01:39:54;;;;;;;41.47;23.85;;;;;;;;;;13046372;22;20446;-87
2024/01/01 01:44:58;;;;;;;57.20;31.93;;;;;;;;;;13047462;22;20902;-89
2024/01/01 01:50:01;;;;;;;41.78;24.05;;;;;;;;;;13044860;22;20416;-89
2024/01/01 01:55:03;;;;;;;40.92;21.92;;;;;;;;;;13046448;22;20365;-89
2024/01/01 02:00:08;;;;;;;38.95;22.15;;;;;;;;;;13047989;22;20381;-89
2024/01/01 02:05:11;;;;;;;44.27;22.43;;;;;;;;;;13040739;22;20399;-88
2024/01/01 02:10:13;;;;;;;39.60;22.40;;;;;;;;;;13045102;22;20360;-89
2024/01/01 02:15:17;;;;;;;39.65;22.63;;;;;;;;;;13068398;22;20829;-88
2024/01/01 02:20:19;;;;;;;41.90;22.63;;;;;;;;;;13047581;22;20426;-89
2024/01/01 02:25:23;;;;;;;41.95;24.08;;;;;;;;;;13047117;22;20478;-88
2024/01/01 02:30:25;;;;;;;40.75;22.52;;;;;;;;;;13047717;22;20395;-88
2024/01/01 02:35:28;;;;;;;40.07;22.00;;;;;;;;;;13068904;22;20364;-88
2024/01/01 02:40:32;;;;;;;35.53;20.87;;;;;;;;;;13052709;22;20388;-87
2024/01/01 02:45:34;;;;;;;38.20;20.63;;;;;;;;;;13054098;22;20360;-88
2024/01/01 02:50:37;;;;;;;32.87;19.17;;;;;;;;;;13050320;22;20701;-88
2024/01/01 02:55:41;;;;;;;34.92;18.55;;;;;;;;;;13050191;22;20360;-89
2024/01/01 03:00:46;;;;;;;35.50;19.10;;;;;;;;;;13050618;22;20452;-88
2024/01/01 03:05:49;;;;;;;31.55;18.65;;;;;;;;;;13050197;22;20463;-89
2024/01/01 03:10:52;;;;;;;31.98;18.27;;;;;;;;;;13051164;22;20724;-88
2024/01/01 03:15:55;;;;;;;32.83;18.13;;;;;;;;;;13051220;22;20423;-89
2024/01/01 03:20:57;;;;;;;34.55;17.60;;;;;;;;;;13049515;22;20411;-88
2024/01/01 03:26:01;;;;;;;35.28;18.38;;;;;;;;;;13050225;22;20395;-88
2024/01/01 03:31:04;;;;;;;30.77;17.53;;;;;;;;;;13049494;22;20418;-89
2024/01/01 03:36:07;;;;;;;33.10;18.20;;;;;;;;;;13068706;22;20365;-88
2024/01/01 03:41:10;;;;;;;28.70;15.43;;;;;;;;;;13071496;22;20377;-88
2024/01/01 03:46:13;;;;;;;30.70;16.88;;;;;;;;;;13049308;22;20373;-88
2024/01/01 03:51:15;;;;;;;29.50;15.90;;;;;;;;;;13044746;22;20825;-89
2024/01/01 03:56:19;;;;;;;29.98;16.33;;;;;;;;;;13077140;22;20411;-88
2024/01/01 04:01:22;;;;;;;25.60;14.73;;;;;;;;;;13058708;22;20458;-88
2024/01/01 04:06:24;;;;;;;27.98;15.65;;;;;;;;;;13049130;22;20361;-88
2024/01/01 04:11:28;;;;;;;29.38;15.68;;;;;;;;;;13050116;22;20365;-88
2024/01/01 04:16:30;;;;;;;27.37;15.00;;;;;;;;;;13049868;22;20454;-88
2024/01/01 04:21:32;;;;;;;24.97;14.80;;;;;;;;;;13050022;22;20384;-89
2024/01/01 04:26:38;;;;;;;25.33;14.23;;;;;;;;;;13050467;22;20486;-89
2024/01/01 04:31:40;;;;;;;28.08;14.32;;;;;;;;;;13049094;22;20821;-89
2024/01/01 04:36:44;;;;;;;26.77;15.60;;;;;;;;;;13048707;22;20362;-89
2024/01/01 04:41:48;;;;;;;24.50;14.20;;;;;;;;;;13048512;22;20377;-88
2024/01/01 04:46:51;;;;;;;24.47;14.00;;;;;;;;;;13049759;22;20448;-88
2024/01/01 04:51:53;;;;;;;21.90;13.43;;;;;;;;;;13047650;22;20364;-89
2024/01/01 04:56:57;;;;;;;25.35;14.32;;;;;;;;;;13049332;22;20361;-89
2024/01/01 05:01:59;;;;;;;25.50;14.27;;;;;;;;;;13049133;22;20434;-88
2024/01/01 05:07:02;;;;;;;28.20;15.43;;;;;;;;;;13070522;22;20361;-89
2024/01/01 05:12:06;;;;;;;31.87;15.20;;;;;;;;;;13047468;22;20425;-89
2024/01/01 05:17:09;;;;;;;32.70;15.32;;;;;;;;;;13022275;22;20422;-89
2024/01/01 05:22:11;;;;;;;30.45;16.10;;;;;;;;;;13047254;22;20358;-88
2024/01/01 05:27:15;;;;;;;29.48;15.73;;;;;;;;;;13069825;22;20423;-89
2024/01/01 05:32:17;;;;;;;26.65;14.88;;;;;;;;;;13070184;22;20395;-89
2024/01/01 05:37:20;;;;;;;28.33;16.35;;;;;;;;;;13046788;22;20365;-89
2024/01/01 05:42:23;;;;;;;26.63;15.90;;;;;;;;;;13047608;22;20387;-88
2024/01/01 05:47:26;;;;;;;30.40;16.83;;;;;;;;;;13069481;22;20361;-89
2024/01/01 05:52:29;;;;;;;33.73;17.70;;;;;;;;;;13046661;22;20369;-89
2024/01/01 05:57:32;;;;;;;33.10;17.73;;;;;;;;;;13046954;22;20357;-88
2024/01/01 06:02:35;;;;;;;31.00;17.25;;;;;;;;;;13046894;22;20899;-88
2024/01/01 06:07:37;;;;;;;34.60;18.02;;;;;;;;;;13045876;22;20361;-88
2024/01/01 06:12:41;;;;;;;33.80;19.08;;;;;;;;;;13068347;22;20365;-88
2024/01/01 06:17:43;;;;;;;30.73;17.10;;;;;;;;;;13068003;22;20376;-88
2024/01/01 06:22:47;;;;;;;35.43;19.10;;;;;;;;;;13049487;22;20360;-88
2024/01/01 06:27:51;;;;;;;40.53;18.77;;;;;;;;;;13051395;22;20415;-88
2024/01/01 06:32:53;;;;;;;37.08;18.25;;;;;;;;;;13072461;22;20365;-88
2024/01/01 06:37:56;;;;;;;33.00;16.83;;;;;;;;;;13051223;22;20443;-88
2024/01/01 06:43:00;;;;;;;36.67;17.63;;;;;;;;;;13051839;22;20418;-88
2024/01/01 06:48:02;;;;;;;30.63;15.25;;;;;;;;;;13051342;22;20361;-88
2024/01/01 06:53:04;;;;;;;27.52;14.30;;;;;;;;;;13050557;22;20407;-89
2024/01/01 06:58:08;;;;;;;25.52;13.88;;;;;;;;;;13072986;22;20407;-88
2024/01/01 07:03:11;;;;;;;27.30;13.93;;;;;;;;;;13050532;22;20353;-88
2024/01/01 07:08:13;;;;;;;27.50;13.83;;;;;;;;;;13050426;22;20446;-89
2024/01/01 07:13:17;;;;;;;22.60;12.93;;;;;;;;;;13050751;22;20406;-88
2024/01/01 07:18:20;;;;;;;21.92;12.30;;;;;;;;;;13050717;22;20373;-88
2024/01/01 07:23:22;;;;;;;22.97;12.43;;;;;;;;;;13071591;22;20427;-89
2024/01/01 07:28:26;;;;;;;24.25;11.40;;;;;;;;;;13051674;22;20387;-88
2024/01/01 07:33:28;;;;;;;24.33;11.63;;;;;;;;;;13050837;22;20365;-88
2024/01/01 07:38:31;;;;;;;22.35;12.40;;;;;;;;;;13049715;22;20918;-88
2024/01/01 07:43:35;;;;;;;27.02;11.98;;;;;;;;;;13070520;22;20396;-88
2024/01/01 07:48:37;;;;;;;23.30;12.82;;;;;;;;;;13056550;22;20422;-89
2024/01/01 07:53:39;;;;;;;22.58;11.55;;;;;;;;;;13071631;22;20365;-88
2024/01/01 07:58:43;;;;;;;22.73;11.82;;;;;;;;;;13071352;22;20369;-88
2024/01/01 08:03:46;;;;;;;21.00;12.02;;;;;;;;;;13071012;22;20646;-88
2024/01/01 08:08:48;;;;;;;19.52;11.50;;;;;;;;;;13048339;22;20424;-88
2024/01/01 08:13:52;;;;;;;20.43;11.20;;;;;;;;;;13047651;22;20366;-88
2024/01/01 08:18:54;;;;;;;19.83;11.20;;;;;;;;;;13048670;22;20435;-88
2024/01/01 08:23:57;;;;;;;22.17;12.03;;;;;;;;;;13047226;22;20369;-88
2024/01/01 08:29:01;;;;;;;24.33;13.13;;;;;;;;;;13070014;22;20353;-89
2024/01/01 08:34:03;;;;;;;22.35;12.23;;;;;;;;;;13048420;22;20358;-89
2024/01/01 08:39:09;;;;;;;21.88;12.15;;;;;;;;;;13047785;22;20422;-86
2024/01/01 08:44:13;;;;;;;25.73;11.37;;;;;;;;;;13047979;22;20354;-88
2024/01/01 08:49:15;;;;;;;23.83;11.80;;;;;;;;;;13070445;22;20361;-88
2024/01/01 08:54:18;;;;;;;25.10;13.80;;;;;;;;;;13050638;22;20982;-88
2024/01/01 08:59:22;;;;;;;23.73;11.90;;;;;;;;;;13069974;22;20423;-89
2024/01/01 09:04:24;;;;;;;22.83;12.23;;;;;;;;;;13074732;22;20362;-88
2024/01/01 09:09:27;;;;;;;22.10;11.00;;;;;;;;;;13058119;22;20419;-88
2024/01/01 09:14:31;;;;;;;23.02;12.43;;;;;;;;;;13048078;22;20369;-88
2024/01/01 09:19:33;;;;;;;20.00;11.70;;;;;;;;;;13049808;22;20864;-88
2024/01/01 09:24:36;;;;;;;20.40;11.13;;;;;;;;;;13048745;22;20468;-88
2024/01/01 09:29:40;;;;;;;20.35;11.25;;;;;;;;;;13043527;22;20423;-88
2024/01/01 09:34:42;;;;;;;21.33;11.87;;;;;;;;;;13041457;22;20446;-88
2024/01/01 09:39:44;;;;;;;19.30;11.37;;;;;;;;;;13074245;22;20379;-88
2024/01/01 09:44:49;;;;;;;21.15;11.85;;;;;;;;;;13104670;22;20376;-89
2024/01/01 09:49:51;;;;;;;18.50;11.13;;;;;;;;;;13105075;22;20375;-88
2024/01/01 09:54:54;;;;;;;19.17;10.70;;;;;;;;;;13112188;22;20907;-88
2024/01/01 09:59:59;;;;;;;15.68;9.20;;;;;;;;;;13104138;22;20379;-88
2024/01/01 10:05:11;;;;;;;14.80;9.55;;;;;;;;;;13104112;22;20436;-89
2024/01/01 10:10:27;;;;;;;14.98;9.13;;;;;;;;;;13104025;22;20929;-89
2024/01/01 10:15:31;;;;;;;14.20;10.07;;;;;;;;;;13104292;22;20433;-89
2024/01/01 10:20:33;;;;;;;15.03;10.30;;;;;;;;;;13104791;22;20413;-89
2024/01/01 10:25:35;;;;;;;15.83;9.93;;;;;;;;;;13104609;22;20928;-89
2024/01/01 10:30:40;;;;;;;13.80;8.90;;;;;;;;;;13108298;22;20432;-88
2024/01/01 10:35:43;;;;;;;12.93;8.37;;;;;;;;;;13106593;22;20826;-88
2024/01/01 10:40:47;;;;;;;14.05;9.40;;;;;;;;;;13108620;22;20468;-88
2024/01/01 10:45:51;;;;;;;16.63;10.70;;;;;;;;;;13106497;22;20441;-88
2024/01/01 10:51:05;;;;;;;14.77;10.52;;;;;;;;;;13107902;22;20444;-87
2024/01/01 10:56:19;;;;;;;19.70;12.30;;;;;;;;;;13108088;22;20414;-88
2024/01/01 11:01:24;;;;;;;17.33;11.30;;;;;;;;;;13128682;22;20375;-88
2024/01/01 11:06:29;;;;;;;18.05;11.80;;;;;;;;;;13108786;22;20359;-88
2024/01/01 11:11:31;;;;;;;15.45;10.60;;;;;;;;;;13110993;22;20905;-87
2024/01/01 11:22:34;;;;;;;16.80;10.52;;;;;;;;;;10585441;27;20376;-88
2024/01/01 11:27:47;;;;;;;14.25;9.35;;;;;;;;;;10589450;27;20864;-86
2024/01/01 11:32:49;;;;;;;14.98;9.85;;;;;;;;;;10597913;27;20437;-86
2024/01/01 11:37:59;;;;;;;18.30;12.87;;;;;;;;;;10596804;27;20420;-86
2024/01/01 11:43:07;;;;;;;13.98;10.02;;;;;;;;;;10576204;27;20464;-86
2024/01/01 11:48:10;;;;;;;11.67;8.50;;;;;;;;;;10598238;27;20414;-89
2024/01/01 11:53:15;;;;;;;12.90;8.48;;;;;;;;;;10596027;27;20419;-89
2024/01/01 11:58:18;;;;;;;12.13;8.35;;;;;;;;;;10583603;27;20415;-90
2024/01/01 12:03:22;;;;;;;13.20;8.73;;;;;;;;;;10586760;28;20749;-90
2024/01/01 12:08:26;;;;;;;12.90;9.07;;;;;;;;;;10605344;27;20869;-87
2024/01/01 12:13:29;;;;;;;14.57;10.45;;;;;;;;;;10601418;28;20428;-90
2024/01/01 12:18:31;;;;;;;15.23;10.03;;;;;;;;;;10628502;27;20459;-89
2024/01/01 12:23:36;;;;;;;15.53;9.10;;;;;;;;;;10606364;28;20871;-91
2024/01/01 12:28:40;;;;;;;14.13;8.98;;;;;;;;;;10586864;28;20407;-89
2024/01/01 12:33:59;;;;;;;15.80;8.95;;;;;;;;;;10577549;28;20393;-90
2024/01/01 12:39:03;;;;;;;16.67;9.50;;;;;;;;;;10555475;28;20898;-91
2024/01/01 12:44:06;;;;;;;16.17;10.00;;;;;;;;;;10570449;27;20414;-90
2024/01/01 12:49:08;;;;;;;16.37;10.03;;;;;;;;;;10558899;28;20417;-89
2024/01/01 12:54:12;;;;;;;16.43;10.40;;;;;;;;;;10561737;27;20470;-84
2024/01/01 12:59:14;;;;;;;17.05;10.32;;;;;;;;;;10549374;27;20442;-90
2024/01/01 13:04:17;;;;;;;16.55;10.68;;;;;;;;;;10559803;28;20410;-90
2024/01/01 13:09:22;;;;;;;19.52;11.15;;;;;;;;;;10553582;28;20416;-89
2024/01/01 13:14:25;;;;;;;17.25;10.75;;;;;;;;;;10558077;28;20754;-91
2024/01/01 13:19:27;;;;;;;15.83;10.57;;;;;;;;;;10557236;27;20413;-89
2024/01/01 13:24:33;;;;;;;22.87;13.60;;;;;;;;;;10557629;28;20410;-90
2024/01/01 13:29:37;;;;;;;18.03;11.40;;;;;;;;;;10555071;28;20856;-89
2024/01/01 13:34:40;;;;;;;17.33;10.97;;;;;;;;;;10552133;28;20408;-90
2024/01/01 13:39:43;;;;;;;18.15;11.20;;;;;;;;;;10564731;27;20493;-89
2024/01/01 13:44:47;;;;;;;17.83;12.87;;;;;;;;;;10564968;28;20505;-90
2024/01/01 13:49:49;;;;;;;16.85;10.18;;;;;;;;;;10565438;27;20411;-89
2024/01/01 13:54:53;;;;;;;18.33;10.47;;;;;;;;;;10556655;28;20399;-89
2024/01/01 13:59:55;;;;;;;17.17;10.57;;;;;;;;;;10563184;27;20422;-89
2024/01/01 14:04:58;;;;;;;17.10;10.55;;;;;;;;;;10562016;27;20408;-91
2024/01/01 14:10:02;;;;;;;16.73;10.27;;;;;;;;;;10582473;27;20406;-90
2024/01/01 14:15:05;;;;;;;17.63;10.30;;;;;;;;;;10562112;28;20466;-89
2024/01/01 14:20:13;;;;;;;19.73;10.90;;;;;;;;;;10562388;28;20751;-90
2024/01/01 14:25:18;;;;;;;18.50;11.27;;;;;;;;;;10541395;28;20412;-89
2024/01/01 14:30:21;;;;;;;18.55;11.43;;;;;;;;;;10546590;28;20434;-90
2024/01/01 14:35:24;;;;;;;20.47;12.03;;;;;;;;;;10547846;28;20404;-89
2024/01/01 14:40:27;;;;;;;19.13;11.90;;;;;;;;;;10549386;28;20412;-89
2024/01/01 14:45:30;;;;;;;21.02;11.57;;;;;;;;;;10548091;28;20471;-89
2024/01/01 14:50:38;;;;;;;20.13;11.60;;;;;;;;;;10552690;28;20475;-90
2024/01/01 14:55:42;;;;;;;19.30;11.98;;;;;;;;;;10548022;28;20434;-89
2024/01/01 15:00:44;;;;;;;20.60;13.27;;;;;;;;;;10561170;28;20769;-90
2024/01/01 15:05:47;;;;;;;22.85;13.77;;;;;;;;;;10562124;28;20407;-90
2024/01/01 15:10:51;;;;;;;21.03;13.23;;;;;;;;;;10553590;28;20399;-90
2024/01/01 15:15:54;;;;;;;20.92;13.18;;;;;;;;;;10555754;28;20463;-90
2024/01/01 15:20:56;;;;;;;23.42;13.82;;;;;;;;;;10556991;28;20410;-89
2024/01/01 15:26:00;;;;;;;22.10;13.82;;;;;;;;;;10566533;28;20946;-89
2024/01/01 15:31:03;;;;;;;23.30;13.30;;;;;;;;;;10542545;28;20451;-86
2024/01/01 15:36:06;;;;;;;23.13;13.60;;;;;;;;;;10545254;28;20395;-87
2024/01/01 15:41:13;;;;;;;22.70;13.27;;;;;;;;;;10555472;28;20420;-87
2024/01/01 15:46:15;;;;;;;23.47;15.40;;;;;;;;;;10549818;28;20447;-87
2024/01/01 15:51:19;;;;;;;25.50;15.10;;;;;;;;;;10554227;27;20843;-87
2024/01/01 15:56:23;;;;;;;23.63;14.47;;;;;;;;;;10560736;27;20941;-87
2024/01/01 16:01:26;;;;;;;25.10;14.25;;;;;;;;;;10542241;28;20422;-87
2024/01/01 16:06:28;;;;;;;26.15;15.75;;;;;;;;;;10553477;28;20412;-88
2024/01/01 16:11:32;;;;;;;22.88;14.43;;;;;;;;;;10567840;28;20411;-88
2024/01/01 16:16:34;;;;;;;22.77;13.90;;;;;;;;;;10549950;28;20416;-86
2024/01/01 16:21:36;;;;;;;25.00;14.85;;;;;;;;;;10560050;27;20424;-88
2024/01/01 16:26:40;;;;;;;23.05;14.45;;;;;;;;;;10559248;28;20399;-88
2024/01/01 16:31:43;;;;;;;25.27;14.97;;;;;;;;;;10556780;28;21167;-87
2024/01/01 16:36:53;;;;;;;27.08;16.67;;;;;;;;;;10555201;27;20469;-87
2024/01/01 16:41:56;;;;;;;31.37;17.80;;;;;;;;;;10567335;27;20416;-88
2024/01/01 16:46:59;;;;;;;26.90;16.77;;;;;;;;;;10569375;28;20408;-89
2024/01/01 16:52:01;;;;;;;26.85;16.05;;;;;;;;;;10566752;27;20459;-86
2024/01/01 16:57:08;;;;;;;28.90;17.70;;;;;;;;;;10551956;28;20942;-87
2024/01/01 17:02:10;;;;;;;28.87;16.73;;;;;;;;;;10553134;28;20418;-87
2024/01/01 17:07:12;;;;;;;33.77;18.30;;;;;;;;;;10559618;27;20410;-86
2024/01/01 17:12:16;;;;;;;42.90;22.92;;;;;;;;;;10559714;28;20464;-87
2024/01/01 17:17:19;;;;;;;69.13;37.97;;;;;;;;;;10567734;28;20414;-88
2024/01/01 17:22:21;;;;;;;53.40;31.87;;;;;;;;;;10564335;27;20977;-87
2024/01/01 17:27:25;;;;;;;55.37;31.83;;;;;;;;;;10566983;27;20469;-88
2024/01/01 17:32:27;;;;;;;52.53;29.90;;;;;;;;;;10561200;28;20908;-87
2024/01/01 17:37:30;;;;;;;51.60;30.23;;;;;;;;;;10560171;28;20481;-86
2024/01/01 17:42:34;;;;;;;57.10;33.67;;;;;;;;;;10554871;27;20453;-87
2024/01/01 17:47:36;;;;;;;57.27;33.80;;;;;;;;;;10565219;27;20416;-88
2024/01/01 17:52:38;;;;;;;64.68;38.25;;;;;;;;;;10567393;28;20410;-87
2024/01/01 17:57:42;;;;;;;61.05;35.40;;;;;;;;;;10575642;28;20391;-87
2024/01/01 18:02:44;;;;;;;59.43;34.63;;;;;;;;;;10546586;27;21013;-87
2024/01/01 18:07:47;;;;;;;65.05;37.38;;;;;;;;;;10569281;27;20487;-87
2024/01/01 18:12:51;;;;;;;61.35;34.92;;;;;;;;;;10564876;27;20460;-85
2024/01/01 18:17:53;;;;;;;53.27;32.20;;;;;;;;;;10546475;27;20430;-85
2024/01/01 18:22:56;;;;;;;49.00;30.90;;;;;;;;;;10544338;27;20578;-84
2024/01/01 18:28:00;;;;;;;52.07;30.93;;;;;;;;;;10541207;28;20444;-86
2024/01/01 18:33:02;;;;;;;54.65;34.35;;;;;;;;;;10544558;28;20415;-85
2024/01/01 18:38:04;;;;;;;53.20;32.28;;;;;;;;;;10546464;27;20480;-86
2024/01/01 18:43:08;;;;;;;53.00;31.65;;;;;;;;;;10542601;28;20481;-88
2024/01/01 18:48:11;;;;;;;50.47;30.98;;;;;;;;;;10546414;28;20404;-85
2024/01/01 18:53:13;;;;;;;48.78;29.65;;;;;;;;;;10539141;28;20392;-86
2024/01/01 18:58:17;;;;;;;51.80;30.83;;;;;;;;;;10558240;27;20879;-85
2024/01/01 19:03:19;;;;;;;53.97;28.85;;;;;;;;;;10543329;27;20416;-84
2024/01/01 19:08:22;;;;;;;44.78;24.55;;;;;;;;;;10557243;28;20811;-88
2024/01/01 19:13:27;;;;;;;45.67;24.23;;;;;;;;;;10550378;28;20459;-87
2024/01/01 19:18:29;;;;;;;56.47;30.15;;;;;;;;;;10557103;28;20402;-87
2024/01/01 19:23:32;;;;;;;64.30;32.20;;;;;;;;;;10542437;28;20963;-87
2024/01/01 19:28:38;;;;;;;51.83;26.40;;;;;;;;;;10553418;28;20914;-88
2024/01/01 19:33:40;;;;;;;111.97;53.38;;;;;;;;;;10558190;28;20399;-87
2024/01/01 19:38:42;;;;;;;112.15;52.20;;;;;;;;;;10561202;28;20440;-86
2024/01/01 19:43:46;;;;;;;54.00;29.13;;;;;;;;;;10560983;28;20426;-87
2024/01/01 19:48:49;;;;;;;49.42;27.58;;;;;;;;;;10560047;28;20774;-87
2024/01/01 19:53:51;;;;;;;38.50;23.50;;;;;;;;;;10553292;28;20412;-87
2024/01/01 19:58:55;;;;;;;42.22;22.95;;;;;;;;;;10560074;28;20407;-87
2024/01/01 20:03:58;;;;;;;83.70;37.83;;;;;;;;;;10556517;28;20426;-87
2024/01/01 20:09:00;;;;;;;76.32;36.78;;;;;;;;;;10561173;27;20466;-87
2024/01/01 20:14:04;;;;;;;39.17;18.90;;;;;;;;;;10555709;28;20393;-87
2024/01/01 20:19:07;;;;;;;56.87;27.77;;;;;;;;;;10561838;27;20536;-87
2024/01/01 20:24:11;;;;;;;36.17;20.23;;;;;;;;;;10552098;28;20481;-87
2024/01/01 20:29:15;;;;;;;49.00;23.65;;;;;;;;;;10559424;28;20882;-87
2024/01/01 20:34:17;;;;;;;66.18;34.58;;;;;;;;;;10550444;28;20468;-87
2024/01/01 20:39:20;;;;;;;39.92;22.85;;;;;;;;;;10559510;27;20412;-87
2024/01/01 20:44:24;;;;;;;60.87;31.10;;;;;;;;;;10554538;28;20423;-87
2024/01/01 20:49:26;;;;;;;73.88;35.78;;;;;;;;;;10568137;28;20427;-91
2024/01/01 20:54:28;;;;;;;35.53;19.73;;;;;;;;;;10559983;27;20415;-91
2024/01/01 20:59:32;;;;;;;36.38;21.05;;;;;;;;;;10550063;28;20408;-90
2024/01/01 21:04:35;;;;;;;37.77;19.87;;;;;;;;;;10555895;28;20463;-91
2024/01/01 21:09:37;;;;;;;42.37;22.33;;;;;;;;;;10559336;28;20767;-91
2024/01/01 21:14:41;;;;;;;48.03;24.35;;;;;;;;;;10558825;28;20386;-91
2024/01/01 21:19:43;;;;;;;37.03;20.80;;;;;;;;;;10554823;28;20410;-91
2024/01/01 21:24:50;;;;;;;33.63;19.27;;;;;;;;;;10562748;28;20449;-90
2024/01/01 21:29:54;;;;;;;41.33;23.60;;;;;;;;;;10553239;28;20436;-91
2024/01/01 21:34:56;;;;;;;37.83;21.13;;;;;;;;;;10562041;27;20405;-91
2024/01/01 21:39:58;;;;;;;40.20;21.30;;;;;;;;;;10565550;28;20405;-90
2024/01/01 21:45:02;;;;;;;33.95;18.73;;;;;;;;;;10558019;28;20397;-91
2024/01/01 21:50:06;;;;;;;57.70;28.75;;;;;;;;;;10550811;28;20406;-91
2024/01/01 21:55:08;;;;;;;69.95;32.58;;;;;;;;;;10556661;28;20480;-91
2024/01/01 22:00:16;;;;;;;35.00;20.35;;;;;;;;;;10548353;28;20487;-90
2024/01/01 22:05:19;;;;;;;58.50;26.52;;;;;;;;;;10551150;27;20414;-91
2024/01/01 22:10:21;;;;;;;28.55;16.63;;;;;;;;;;10560410;28;20737;-90
2024/01/01 22:15:25;;;;;;;63.00;29.17;;;;;;;;;;10553513;28;20768;-91
2024/01/01 22:20:27;;;;;;;58.53;28.33;;;;;;;;;;10554691;28;20419;-91
2024/01/01 22:25:30;;;;;;;53.47;26.00;;;;;;;;;;10551765;28;20408;-91
2024/01/01 22:30:34;;;;;;;33.15;18.60;;;;;;;;;;10556825;28;20466;-87
2024/01/01 22:35:36;;;;;;;24.67;15.80;;;;;;;;;;10558937;28;20444;-89
2024/01/01 22:40:39;;;;;;;28.92;17.30;;;;;;;;;;10552480;28;20914;-89
2024/01/01 22:45:43;;;;;;;27.33;17.13;;;;;;;;;;10548487;28;20958;-88
2024/01/01 22:50:49;;;;;;;33.07;19.47;;;;;;;;;;10558585;27;20842;-89
2024/01/01 22:55:52;;;;;;;23.43;15.13;;;;;;;;;;10567033;28;20437;-89
2024/01/01 23:00:56;;;;;;;57.03;28.27;;;;;;;;;;10553577;28;20456;-89
2024/01/01 23:05:58;;;;;;;42.30;20.17;;;;;;;;;;10560919;27;20432;-89
2024/01/01 23:11:00;;;;;;;23.43;15.90;;;;;;;;;;10580592;28;20450;-88
2024/01/01 23:16:05;;;;;;;22.27;14.48;;;;;;;;;;10557300;27;20408;-90
2024/01/01 23:21:07;;;;;;;29.92;16.67;;;;;;;;;;10537186;28;20439;-88
2024/01/01 23:26:10;;;;;;;24.60;16.23;;;;;;;;;;10548704;28;20400;-87
2024/01/01 23:31:13;;;;;;;22.52;15.02;;;;;;;;;;10544440;28;20979;-88
2024/01/01 23:36:16;;;;;;;22.40;14.67;;;;;;;;;;10551051;28;20896;-89
2024/01/01 23:41:18;;;;;;;22.52;15.18;;;;;;;;;;10548523;28;20519;-90
2024/01/01 23:46:22;;;;;;;19.92;14.38;;;;;;;;;;10548006;28;20407;-89
2024/01/01 23:51:24;;;;;;;20.23;14.02;;;;;;;;;;10564676;28;20450;-91
2024/01/01 23:56:26;;;;;;;19.55;13.70;;;;;;;;;;10553375;28;20405;-90
